Latest Weather Observations for Thredbo Top Station

IDN60801

Issued at 8:04 am EDT Monday 22 December 2014 (issued every 30 minutes, with the page automatically refreshed every 10 minutes)

About weather observations | Map of weather stations | Latest weather observations for NSW | Other Formats
Station Details ID: 071032 Name: THREDBO AWS Lat: -36.49 Lon: 148.29 Height: 1957.0 m
Data from the previous 72 hours. | See also: Recent months at Thredbo Top Station
Date/Time
EDT
Temp
°C
App
Temp
°C
Dew
Point
Rel
Hum
%
Delta-T
°C
Wind Press
QNH
hPa
Press
MSL
hPa
Rain
since 9 am
mm
Dir
 
Spd
km/h
Gust
km/h
Spd
kts
Gust
kts
22/08:00am 14.9 11.2 4.6 50 5.2 NNW 13 19 7 10 1020.3 1017.8 0.0
22/07:30am 14.3 11.1 4.9 53 4.7 NNW 11 17 6 9 1020.3 1017.8 0.0
22/07:00am 13.9 10.1 3.9 51 4.9 NNW 13 17 7 9 1020.0 1017.6 0.0
22/06:30am 11.9 7.4 4.2 59 3.8 NW 17 19 9 10 1020.0 1017.6 0.0
22/06:00am 11.6 7.0 3.6 58 3.8 NW 17 20 9 11 1019.8 1017.3 0.0
22/05:30am 11.6 6.4 3.6 58 3.8 NW 20 24 11 13 1019.7 1017.2 0.0
22/05:00am 11.8 6.6 3.8 58 3.9 NW 20 26 11 14 1019.4 1016.8 0.0
22/04:30am 10.2 5.1 4.1 66 2.9 NNW 20 26 11 14 1019.2 1016.7 0.0
22/04:00am 10.9 6.0 4.1 63 3.3 NW 19 24 10 13 1019.1 1016.6 0.0
22/03:30am 9.2 4.2 4.6 73 2.2 NNW 20 24 11 13 1019.4 1016.8 0.0
22/03:00am 9.2 3.8 4.6 73 2.2 NNW 22 24 12 13 1019.6 1017.1 0.0
22/02:30am 8.3 3.8 4.3 76 1.9 NNW 17 20 9 11 1019.8 1017.3 0.0
22/02:00am 8.2 3.4 4.4 77 1.8 NNW 19 22 10 12 1020.0 1017.6 0.0
22/01:30am 8.3 3.2 4.3 76 1.9 NNW 20 22 11 12 1020.2 1017.7 0.0
22/01:00am 9.0 4.9 4.6 74 2.1 NNW 15 19 8 10 1020.5 1018.0 0.0
22/12:30am 8.4 3.9 4.2 75 2.0 NNW 17 19 9 10 1020.6 1018.1 0.0
22/12:00am 9.1 5.0 4.5 73 2.2 NNW 15 17 8 9 1020.7 1018.3 0.0
 
Date/Time
EDT
Temp
°C
App
Temp
°C
Dew
Point
Rel
Hum
%
Delta-T
°C
Wind Press
QNH
hPa
Press
MSL
hPa
Rain
since 9 am
mm
Dir
 
Spd
km/h
Gust
km/h
Spd
kts
Gust
kts
21/11:30pm 7.7 3.9 4.1 78 1.7 NNW 13 17 7 9 1020.7 1018.3 0.0
21/11:00pm 8.2 4.1 6.3 88 0.9 NNW 17 19 9 10 1020.8 1018.4 0.0
21/10:30pm 7.7 4.6 5.5 86 1.1 NW 11 15 6 8 1020.8 1018.4 0.0
21/10:00pm 8.8 6.5 5.0 77 1.8 NW 6 11 3 6 1021.0 1018.5 0.0
21/09:30pm 9.3 7.3 4.3 71 2.4 NNW 4 7 2 4 1020.7 1018.3 0.0
21/09:00pm 8.5 5.5 4.1 74 2.1 NW 9 11 5 6 1020.4 1017.9 0.0
21/08:30pm 11.2 8.4 5.1 66 3.0 WNW 9 11 5 6 1020.2 1017.7 0.0
21/08:00pm 12.2 9.3 4.4 59 3.8 WNW 9 11 5 6 1019.9 1017.4 0.0
21/07:30pm 13.7 10.7 4.3 53 4.6 W 9 11 5 6 1019.7 1017.2 0.0
21/07:00pm 14.2 10.8 4.2 51 5.0 W 11 19 6 10 1019.4 1016.8 0.0
21/06:30pm 15.1 11.8 4.8 50 5.2 W 11 20 6 11 1019.1 1016.6 0.0
21/06:00pm 15.0 11.2 3.8 47 5.5 WNW 13 22 7 12 1019.1 1016.6 0.0
21/05:30pm 14.0 9.9 4.3 52 4.8 NW 15 30 8 16 1019.1 1016.6 0.0
21/05:00pm 15.7 11.2 6.2 53 4.9 NNW 19 28 10 15 1019.4 1016.8 0.0
21/04:30pm 15.6 11.1 7.1 57 4.5 NW 20 32 11 17 1019.5 1017.0 0.0
21/04:00pm 14.1 9.1 6.5 60 3.9 NNW 22 35 12 19 1019.6 1017.1 0.0
21/03:30pm 14.4 8.7 6.7 60 4.0 NW 26 37 14 20 1019.8 1017.3 0.0
21/03:00pm 15.0 9.7 6.8 58 4.3 NW 24 41 13 22 1019.7 1017.2 0.0
21/02:36pm 14.6 8.1 6.4 58 4.3 NW 30 50 16 27 1019.9 1017.4 0.0
21/02:30pm 14.8 8.7 6.4 57 4.4 NW 28 41 15 22 1020.0 1017.6 0.0
21/02:00pm 15.2 9.0 6.0 54 4.8 NW 28 39 15 21 1019.8 1017.3 0.0
21/01:40pm 14.7 8.4 5.8 55 4.6 NW 28 46 15 25 1019.7 1017.2 0.0
21/01:30pm 15.3 9.5 6.1 54 4.8 NW 26 43 14 23 1019.8 1017.3 0.0
21/01:00pm 13.7 7.4 5.6 58 4.1 WNW 28 39 15 21 1020.0 1017.6 0.0
21/12:30pm 14.4 9.9 6.3 58 4.2 NW 19 33 10 18 1020.2 1017.7 0.0
21/12:00pm 14.6 8.2 5.1 53 4.8 NW 28 43 15 23 1020.0 1017.6 0.0
21/11:30am 13.6 6.3 4.5 54 4.5 NW 32 46 17 25 1020.0 1017.6 0.0
21/11:00am 13.3 5.8 4.5 55 4.4 NW 33 48 18 26 1020.3 1017.8 0.0
21/10:30am 12.8 4.6 4.8 58 4.0 NW 37 52 20 28 1020.5 1018.0 0.0
21/10:19am 13.3 6.0 4.5 55 4.4 WNW 32 52 17 28 1020.6 1018.1 0.0
21/10:00am 13.6 7.3 5.7 59 4.0 WNW 28 43 15 23 1020.4 1017.9 0.0
21/09:30am 13.0 6.5 4.9 58 4.0 NW 28 44 15 24 1020.3 1017.8 0.0
21/09:00am 12.1 4.5 4.1 58 3.9 NW 33 46 18 25 1020.2 1017.7 0.0
21/08:30am 12.1 5.0 5.3 63 3.4 NW 32 43 17 23 1019.6 1017.1 0.0
21/08:00am 11.4 3.9 4.4 62 3.4 NW 33 46 18 25 1019.4 1016.8 0.0
21/07:30am 10.4 3.0 5.2 70 2.6 NW 33 44 18 24 1019.2 1016.7 0.0
21/07:00am 9.9 2.1 4.7 70 2.5 NW 35 44 19 24 1019.2 1016.7 0.0
21/06:30am 9.7 1.0 4.1 68 2.7 NW 39 50 21 27 1019.2 1016.7 0.0
21/06:00am 9.0 1.8 5.7 80 1.6 NW 33 41 18 22 1019.2 1016.7 0.0
21/05:30am 8.8 2.2 5.9 82 1.4 NW 30 39 16 21 1019.2 1016.7 0.0
21/05:00am 8.7 3.0 6.7 87 1.0 NW 26 33 14 18 1019.1 1016.6 0.0
21/04:30am 8.6 3.2 6.4 86 1.1 NW 24 30 13 16 1019.2 1016.7 0.0
21/04:00am 8.7 3.0 6.7 87 1.0 NNW 26 32 14 17 1019.2 1016.7 0.0
21/03:30am 7.8 2.5 6.6 92 0.6 NNW 24 30 13 16 1019.5 1017.0 0.0
21/03:00am 8.0 2.7 6.6 91 0.7 NNW 24 28 13 15 1019.7 1017.2 0.0
21/02:30am 7.3 2.7 6.4 94 0.4 NNW 20 24 11 13 1020.0 1017.6 0.0
21/02:00am 7.4 2.9 6.3 93 0.5 NNW 19 22 10 12 1020.2 1017.7 0.0
21/01:30am 6.9 2.9 6.5 97 0.2 NNW 17 20 9 11 1020.3 1017.8 0.0
21/01:00am 5.7 1.5 5.6 99 0.0 NNW 17 19 9 10 1020.4 1017.9 0.0
21/12:30am 5.9 2.5 5.8 99 0.0 NNW 13 15 7 8 1020.4 1017.9 0.0
21/12:00am 6.9 3.3 6.8 99 0.0 NNW 15 19 8 10 1020.6 1018.1 0.0
 
Date/Time
EDT
Temp
°C
App
Temp
°C
Dew
Point
Rel
Hum
%
Delta-T
°C
Wind Press
QNH
hPa
Press
MSL
hPa
Rain
since 9 am
mm
Dir
 
Spd
km/h
Gust
km/h
Spd
kts
Gust
kts
20/11:30pm 7.3 3.4 7.2 99 0.1 NNW 17 20 9 11 1020.8 1018.4 0.0
20/11:00pm 7.3 4.1 6.9 97 0.2 NNW 13 17 7 9 1020.8 1018.4 0.0
20/10:30pm 8.8 7.3 8.5 98 0.2 NE 6 9 3 5 1020.8 1018.4 0.0
20/10:00pm 8.9 6.9 8.5 97 0.2 ENE 9 13 5 7 1020.8 1018.4 0.0
20/09:30pm 9.1 7.5 8.2 94 0.5 NE 6 11 3 6 1020.5 1018.0 0.0
20/09:00pm 9.2 7.4 8.0 92 0.6 NE 7 11 4 6 1020.3 1017.8 0.0
20/08:30pm 9.5 6.5 7.9 90 0.8 NE 13 19 7 10 1019.9 1017.4 0.0
20/08:00pm 10.8 9.3 8.4 85 1.3 SE 6 9 3 5 1019.6 1017.1 0.0
20/07:30pm 11.5 9.9 7.8 78 1.9 SSW 6 11 3 6 1019.2 1016.7 0.0
20/07:00pm 11.7 9.3 7.0 73 2.4 WNW 9 15 5 8 1018.9 1016.4 0.0
20/06:30pm 11.7 9.2 6.6 71 2.6 W 9 19 5 10 1018.7 1016.1 0.0
20/06:00pm 12.2 9.8 6.9 70 2.7 NW 9 15 5 8 1018.3 1015.8 0.0
20/05:30pm 12.0 9.1 6.3 68 2.9 WNW 11 20 6 11 1018.2 1015.7 0.0
20/05:00pm 12.5 9.2 6.3 66 3.2 WNW 13 24 7 13 1018.2 1015.7 0.0
20/04:30pm 12.5 9.5 5.9 64 3.4 WNW 11 17 6 9 1018.3 1015.8 0.0
20/04:00pm 13.4 10.0 5.8 60 3.9 WNW 13 26 7 14 1018.4 1015.9 0.0
20/03:30pm 13.1 9.5 5.0 58 4.1 WSW 13 24 7 13 1018.7 1016.1 0.0
20/03:00pm 12.7 8.8 5.4 61 3.7 W 15 22 8 12 1018.8 1016.3 0.0
20/02:30pm 12.7 9.0 4.4 57 4.1 W 13 26 7 14 1019.0 1016.5 0.0
20/02:00pm 13.3 9.1 5.9 61 3.8 W 17 32 9 17 1018.9 1016.4 0.0
20/01:30pm 12.4 8.1 5.3 62 3.6 WSW 17 32 9 17 1018.9 1016.4 0.0
20/01:00pm 12.2 6.5 4.9 61 3.6 WSW 24 37 13 20 1019.1 1016.6 0.0
20/12:30pm 12.3 6.8 3.8 56 4.1 SW 22 37 12 20 1019.2 1016.7 0.0
20/12:00pm 12.4 7.2 3.6 55 4.2 SW 20 35 11 19 1019.2 1016.7 0.0
20/11:30am 11.6 7.2 4.6 62 3.4 SW 17 28 9 15 1019.2 1016.7 0.0
20/11:00am 12.1 7.1 4.8 61 3.6 SW 20 30 11 16 1019.1 1016.6 0.0
20/10:30am 11.4 7.3 4.4 62 3.4 SW 15 28 8 15 1018.9 1016.4 0.0
20/10:00am 11.5 7.7 4.0 60 3.6 SW 13 22 7 12 1018.7 1016.1 0.0
20/09:30am 10.2 5.7 2.3 58 3.7 WSW 15 24 8 13 1018.7 1016.1 0.0
20/09:00am 9.8 5.3 1.9 58 3.6 SW 15 24 8 13 1018.4 1015.9 0.0
20/08:30am 9.1 4.4 0.8 56 3.7 WSW 15 26 8 14 1018.3 1015.8 0.0
20/08:00am 8.0 3.0 -1.0 53 3.8 W 15 22 8 12 1018.2 1015.7 0.0
20/07:30am 7.3 1.9 -1.4 54 3.6 W 17 26 9 14 1018.0 1015.4 0.0
20/07:00am 6.2 0.2 1.1 70 2.2 W 22 28 12 15 1018.0 1015.4 0.0
20/06:30am 5.5 -0.5 1.2 74 1.9 W 22 30 12 16 1018.0 1015.4 0.0
20/06:00am 4.5 -1.9 1.2 79 1.4 WNW 24 30 13 16 1017.9 1015.3 0.0
20/05:30am 4.2 -2.1 1.4 82 1.2 WNW 24 32 13 17 1017.6 1015.1 0.0
20/05:00am 4.7 -2.2 0.1 72 1.9 NW 26 32 14 17 1017.8 1015.2 0.0
20/04:30am 4.5 -2.2 1.5 81 1.3 NW 26 35 14 19 1017.5 1015.0 0.0
20/04:00am 4.8 -1.9 1.5 79 1.4 WNW 26 35 14 19 1017.4 1014.8 0.0
20/03:30am 4.5 -1.4 1.5 81 1.3 WNW 22 30 12 16 1017.5 1015.0 0.0
20/03:00am 4.6 -0.9 1.8 82 1.2 WNW 20 30 11 16 1017.8 1015.2 0.0
20/02:30am 4.5 -1.0 1.7 82 1.2 WNW 20 28 11 15 1018.1 1015.6 0.0
20/02:00am 4.6 -0.9 1.8 82 1.2 WNW 20 28 11 15 1018.4 1015.9 0.0
20/01:30am 4.2 0.4 1.6 83 1.1 WNW 11 20 6 11 1018.9 1016.4 0.0
20/01:00am 4.4 1.5 1.4 81 1.3 W 6 13 3 7 1019.1 1016.6 0.0
20/12:30am 3.7 0.7 1.1 83 1.1 NW 6 13 3 7 1019.1 1016.6 0.0
20/12:00am 3.9 0.9 1.1 82 1.2 W 6 11 3 6 1019.2 1016.7 0.0
 
Date/Time
EDT
Temp
°C
App
Temp
°C
Dew
Point
Rel
Hum
%
Delta-T
°C
Wind Press
QNH
hPa
Press
MSL
hPa
Rain
since 9 am
mm
Dir
 
Spd
km/h
Gust
km/h
Spd
kts
Gust
kts
19/11:30pm 4.4 1.4 0.9 78 1.5 W 6 11 3 6 1019.4 1016.8 0.0
19/11:00pm 3.9 2.2 1.9 87 0.9 CALM 0 4 0 2 1019.5 1017.0 0.0
19/10:30pm 3.8 2.2 2.2 89 0.7 CALM 0 6 0 3 1019.1 1016.6 0.0
19/10:00pm 4.0 1.9 2.0 87 0.9 E 2 6 1 3 1018.9 1016.4 0.0
19/09:30pm 4.0 1.3 2.4 89 0.7 WNW 6 9 3 5 1018.6 1016.0 0.0
19/09:00pm 4.0 0.0 2.7 91 0.6 WSW 13 17 7 9 1018.6 1016.0 0.0
19/08:30pm 4.3 0.6 2.3 87 0.9 SW 11 13 6 7 1018.2 1015.7 0.0
19/08:00pm 5.6 2.0 3.1 84 1.1 WSW 11 17 6 9 1017.8 1015.2 0.0
19/07:30pm 7.1 2.8 3.0 75 1.9 WSW 15 22 8 12 1017.2 1014.6 0.0
19/07:00pm 7.2 2.7 2.3 71 2.2 W 15 22 8 12 1016.7 1014.1 0.0
19/06:30pm 8.3 4.2 2.3 66 2.7 W 13 22 7 12 1016.2 1013.6 0.0
19/06:00pm 7.9 4.1 1.7 65 2.8 W 11 22 6 12 1016.0 1013.4 0.0
19/05:30pm 8.1 4.0 2.1 66 2.7 WNW 13 22 7 12 1015.7 1013.1 0.0
19/05:00pm 8.6 4.6 3.0 68 2.6 W 13 24 7 13 1015.7 1013.1 0.0
19/04:30pm 8.2 4.1 2.0 65 2.8 WNW 13 20 7 11 1015.6 1013.0 0.0
19/04:00pm 8.6 4.0 1.5 61 3.2 W 15 26 8 14 1015.4 1012.7 0.0
19/03:30pm 9.4 5.7 4.2 70 2.5 W 13 20 7 11 1015.4 1012.7 0.0
19/03:00pm 9.1 5.0 2.0 61 3.2 W 13 24 7 13 1015.1 1012.5 0.0
19/02:30pm 9.2 4.7 2.3 62 3.2 W 15 26 8 14 1015.1 1012.5 0.0
19/02:00pm 9.3 4.8 2.2 61 3.2 WSW 15 26 8 14 1015.2 1012.6 0.0
19/01:30pm 8.1 3.5 1.3 62 3.0 WNW 15 22 8 12 1015.2 1012.6 0.0
19/01:00pm 7.7 3.0 1.1 63 2.9 WSW 15 26 8 14 1015.2 1012.6 0.0
19/12:30pm 7.2 1.5 -0.5 58 3.2 WSW 19 32 10 17 1015.1 1012.5 0.0
19/12:00pm 8.0 3.8 1.4 63 2.9 WNW 13 24 7 13 1014.8 1012.1 0.0
19/11:30am 6.9 1.8 1.0 66 2.6 WNW 17 24 9 13 1014.4 1011.8 0.0
19/11:00am 8.4 4.6 -0.6 53 3.8 E 9 22 5 12 1014.2 1011.6 0.0
19/10:30am 7.1 2.5 1.8 69 2.4 S 15 22 8 12 1014.2 1011.6 0.0
19/10:00am 5.6 1.6 0.4 69 2.2 SSE 11 20 6 11 1014.2 1011.6 0.0
19/09:30am 4.9 0.4 -0.5 68 2.2 SSE 13 22 7 12 1014.4 1011.8 0.0
19/09:00am 5.0 1.8 0.9 75 1.8 SSE 7 19 4 10 1014.3 1011.7 0.0
19/08:30am 3.1 -0.1 -0.2 79 1.3 SSE 6 13 3 7 1014.1 1011.4 0.0

Other Formats:

Comma delimited format used in spreadsheet applications
http://www.bom.gov.au/fwo/IDN60801/IDN60801.95909.axf

JavaScript Object Notation format (JSON) in row-major order
http://www.bom.gov.au/fwo/IDN60801/IDN60801.95909.json